sensor_id;sensor_type;location;lat;lon;timestamp;P1;durP1;ratioP1;P2;durP2;ratioP2
6434;SDS011;3250;42.694;23.278;2023-05-17T00:01:40;21.73;;;13.00;;
6434;SDS011;3250;42.694;23.278;2023-05-17T00:04:06;22.10;;;13.38;;
6434;SDS011;3250;42.694;23.278;2023-05-17T00:06:32;20.43;;;13.70;;
6434;SDS011;3250;42.694;23.278;2023-05-17T00:08:58;27.57;;;13.97;;
6434;SDS011;3250;42.694;23.278;2023-05-17T00:11:24;23.93;;;13.97;;
6434;SDS011;3250;42.694;23.278;2023-05-17T00:13:49;19.97;;;13.33;;
6434;SDS011;3250;42.694;23.278;2023-05-17T00:16:15;16.63;;;12.33;;
6434;SDS011;3250;42.694;23.278;2023-05-17T00:18:40;19.40;;;13.33;;
6434;SDS011;3250;42.694;23.278;2023-05-17T00:21:06;19.67;;;12.20;;
6434;SDS011;3250;42.694;23.278;2023-05-17T00:23:31;24.17;;;14.00;;
6434;SDS011;3250;42.694;23.278;2023-05-17T00:25:56;24.37;;;16.10;;
6434;SDS011;3250;42.694;23.278;2023-05-17T00:28:22;25.02;;;13.55;;
6434;SDS011;3250;42.694;23.278;2023-05-17T00:30:47;18.98;;;12.63;;
6434;SDS011;3250;42.694;23.278;2023-05-17T00:33:12;20.67;;;12.60;;
6434;SDS011;3250;42.694;23.278;2023-05-17T00:35:38;18.30;;;11.93;;
6434;SDS011;3250;42.694;23.278;2023-05-17T00:38:03;17.63;;;12.20;;
6434;SDS011;3250;42.694;23.278;2023-05-17T00:40:29;20.17;;;14.23;;
6434;SDS011;3250;42.694;23.278;2023-05-17T00:42:54;18.83;;;12.82;;
6434;SDS011;3250;42.694;23.278;2023-05-17T00:45:20;19.50;;;12.43;;
6434;SDS011;3250;42.694;23.278;2023-05-17T00:47:45;20.27;;;12.23;;
6434;SDS011;3250;42.694;23.278;2023-05-17T00:50:11;19.63;;;11.93;;
6434;SDS011;3250;42.694;23.278;2023-05-17T00:52:37;16.80;;;12.20;;
6434;SDS011;3250;42.694;23.278;2023-05-17T00:55:03;21.40;;;13.00;;
6434;SDS011;3250;42.694;23.278;2023-05-17T00:57:28;18.43;;;12.07;;
6434;SDS011;3250;42.694;23.278;2023-05-17T00:59:55;16.50;;;11.27;;
6434;SDS011;3250;42.694;23.278;2023-05-17T01:02:22;16.93;;;11.30;;
6434;SDS011;3250;42.694;23.278;2023-05-17T01:04:47;23.17;;;10.33;;
6434;SDS011;3250;42.694;23.278;2023-05-17T01:07:13;27.08;;;12.85;;
6434;SDS011;3250;42.694;23.278;2023-05-17T01:09:39;18.02;;;11.73;;
6434;SDS011;3250;42.694;23.278;2023-05-17T01:14:42;15.00;;;10.23;;
6434;SDS011;3250;42.694;23.278;2023-05-17T01:17:48;16.10;;;10.10;;
6434;SDS011;3250;42.694;23.278;2023-05-17T01:23:08;27.33;;;10.20;;
6434;SDS011;3250;42.694;23.278;2023-05-17T01:26:15;12.87;;;9.00;;
6434;SDS011;3250;42.694;23.278;2023-05-17T01:28:45;15.80;;;9.93;;
6434;SDS011;3250;42.694;23.278;2023-05-17T01:31:12;15.17;;;9.60;;
6434;SDS011;3250;42.694;23.278;2023-05-17T01:33:38;16.87;;;9.03;;
6434;SDS011;3250;42.694;23.278;2023-05-17T01:36:04;17.10;;;9.27;;
6434;SDS011;3250;42.694;23.278;2023-05-17T01:38:30;15.03;;;9.33;;
6434;SDS011;3250;42.694;23.278;2023-05-17T01:43:29;13.37;;;8.23;;
6434;SDS011;3250;42.694;23.278;2023-05-17T01:46:17;16.07;;;8.83;;
6434;SDS011;3250;42.694;23.278;2023-05-17T01:49:20;10.77;;;8.27;;
6434;SDS011;3250;42.694;23.278;2023-05-17T01:54:18;17.40;;;8.63;;
6434;SDS011;3250;42.694;23.278;2023-05-17T01:56:47;15.43;;;7.53;;
6434;SDS011;3250;42.694;23.278;2023-05-17T01:59:22;13.00;;;8.50;;
6434;SDS011;3250;42.694;23.278;2023-05-17T02:01:58;13.37;;;8.23;;
6434;SDS011;3250;42.694;23.278;2023-05-17T02:04:30;15.10;;;8.27;;
6434;SDS011;3250;42.694;23.278;2023-05-17T02:06:56;15.90;;;8.13;;
6434;SDS011;3250;42.694;23.278;2023-05-17T02:09:24;13.90;;;8.40;;
6434;SDS011;3250;42.694;23.278;2023-05-17T02:11:49;14.73;;;8.93;;
6434;SDS011;3250;42.694;23.278;2023-05-17T02:14:14;16.30;;;9.57;;
6434;SDS011;3250;42.694;23.278;2023-05-17T02:16:40;17.47;;;9.87;;
6434;SDS011;3250;42.694;23.278;2023-05-17T02:19:06;18.67;;;9.43;;
6434;SDS011;3250;42.694;23.278;2023-05-17T02:21:33;11.47;;;8.63;;
6434;SDS011;3250;42.694;23.278;2023-05-17T02:23:59;15.50;;;9.60;;
6434;SDS011;3250;42.694;23.278;2023-05-17T02:26:24;19.37;;;11.63;;
6434;SDS011;3250;42.694;23.278;2023-05-17T02:28:50;16.60;;;10.60;;
6434;SDS011;3250;42.694;23.278;2023-05-17T02:31:15;18.63;;;12.30;;
6434;SDS011;3250;42.694;23.278;2023-05-17T02:33:40;16.73;;;10.17;;
6434;SDS011;3250;42.694;23.278;2023-05-17T02:36:06;15.07;;;9.70;;
6434;SDS011;3250;42.694;23.278;2023-05-17T02:38:31;15.00;;;9.70;;
6434;SDS011;3250;42.694;23.278;2023-05-17T02:40:57;14.17;;;9.77;;
6434;SDS011;3250;42.694;23.278;2023-05-17T02:43:22;17.77;;;10.63;;
6434;SDS011;3250;42.694;23.278;2023-05-17T02:45:47;17.87;;;9.37;;
6434;SDS011;3250;42.694;23.278;2023-05-17T02:48:13;16.93;;;9.77;;
6434;SDS011;3250;42.694;23.278;2023-05-17T02:50:38;15.37;;;10.13;;
6434;SDS011;3250;42.694;23.278;2023-05-17T02:53:04;17.70;;;10.03;;
6434;SDS011;3250;42.694;23.278;2023-05-17T02:55:29;16.87;;;10.87;;
6434;SDS011;3250;42.694;23.278;2023-05-17T02:57:54;14.90;;;10.43;;
6434;SDS011;3250;42.694;23.278;2023-05-17T03:00:20;15.90;;;9.10;;
6434;SDS011;3250;42.694;23.278;2023-05-17T03:02:45;16.50;;;9.57;;
6434;SDS011;3250;42.694;23.278;2023-05-17T03:05:10;20.83;;;8.87;;
6434;SDS011;3250;42.694;23.278;2023-05-17T03:07:36;13.07;;;9.43;;
6434;SDS011;3250;42.694;23.278;2023-05-17T03:10:02;13.27;;;9.00;;
6434;SDS011;3250;42.694;23.278;2023-05-17T03:12:27;15.33;;;9.73;;
6434;SDS011;3250;42.694;23.278;2023-05-17T03:14:52;15.40;;;10.17;;
6434;SDS011;3250;42.694;23.278;2023-05-17T03:17:18;15.17;;;9.97;;
6434;SDS011;3250;42.694;23.278;2023-05-17T03:19:43;18.50;;;10.33;;
6434;SDS011;3250;42.694;23.278;2023-05-17T03:22:08;19.50;;;10.47;;
6434;SDS011;3250;42.694;23.278;2023-05-17T03:24:34;24.10;;;13.50;;
6434;SDS011;3250;42.694;23.278;2023-05-17T03:27:00;31.33;;;16.80;;
6434;SDS011;3250;42.694;23.278;2023-05-17T03:29:25;29.13;;;14.20;;
6434;SDS011;3250;42.694;23.278;2023-05-17T03:31:51;26.93;;;13.93;;
6434;SDS011;3250;42.694;23.278;2023-05-17T03:34:16;21.30;;;12.30;;
6434;SDS011;3250;42.694;23.278;2023-05-17T03:36:41;27.00;;;13.10;;
6434;SDS011;3250;42.694;23.278;2023-05-17T03:39:07;25.87;;;13.67;;
6434;SDS011;3250;42.694;23.278;2023-05-17T03:41:32;27.37;;;13.23;;
6434;SDS011;3250;42.694;23.278;2023-05-17T03:43:58;22.53;;;14.07;;
6434;SDS011;3250;42.694;23.278;2023-05-17T03:46:24;25.77;;;12.77;;
6434;SDS011;3250;42.694;23.278;2023-05-17T03:48:49;22.13;;;13.10;;
6434;SDS011;3250;42.694;23.278;2023-05-17T03:51:15;26.13;;;14.07;;
6434;SDS011;3250;42.694;23.278;2023-05-17T03:53:40;24.40;;;12.27;;
6434;SDS011;3250;42.694;23.278;2023-05-17T03:56:07;21.33;;;11.77;;
6434;SDS011;3250;42.694;23.278;2023-05-17T03:58:33;22.30;;;11.17;;
6434;SDS011;3250;42.694;23.278;2023-05-17T04:00:58;19.77;;;11.37;;
6434;SDS011;3250;42.694;23.278;2023-05-17T04:03:24;21.13;;;11.47;;
6434;SDS011;3250;42.694;23.278;2023-05-17T04:05:50;20.60;;;11.60;;
6434;SDS011;3250;42.694;23.278;2023-05-17T04:08:15;57.20;;;19.77;;
6434;SDS011;3250;42.694;23.278;2023-05-17T04:10:41;22.23;;;12.47;;
6434;SDS011;3250;42.694;23.278;2023-05-17T04:13:09;19.33;;;12.40;;
6434;SDS011;3250;42.694;23.278;2023-05-17T04:15:35;18.83;;;11.57;;
6434;SDS011;3250;42.694;23.278;2023-05-17T04:18:01;19.40;;;11.50;;
6434;SDS011;3250;42.694;23.278;2023-05-17T04:20:26;24.17;;;11.10;;
6434;SDS011;3250;42.694;23.278;2023-05-17T04:22:52;21.23;;;10.43;;
6434;SDS011;3250;42.694;23.278;2023-05-17T04:25:17;18.47;;;11.13;;
6434;SDS011;3250;42.694;23.278;2023-05-17T04:27:44;30.03;;;9.93;;
6434;SDS011;3250;42.694;23.278;2023-05-17T04:30:10;17.77;;;9.87;;
6434;SDS011;3250;42.694;23.278;2023-05-17T04:32:36;25.30;;;9.73;;
6434;SDS011;3250;42.694;23.278;2023-05-17T04:35:02;19.87;;;9.73;;
6434;SDS011;3250;42.694;23.278;2023-05-17T04:37:27;20.43;;;10.07;;
6434;SDS011;3250;42.694;23.278;2023-05-17T04:39:52;18.00;;;10.30;;
6434;SDS011;3250;42.694;23.278;2023-05-17T04:42:18;15.63;;;10.73;;
6434;SDS011;3250;42.694;23.278;2023-05-17T04:44:43;16.80;;;9.60;;
6434;SDS011;3250;42.694;23.278;2023-05-17T04:47:09;20.37;;;10.00;;
6434;SDS011;3250;42.694;23.278;2023-05-17T04:49:34;20.17;;;10.23;;
6434;SDS011;3250;42.694;23.278;2023-05-17T04:52:00;23.93;;;11.50;;
6434;SDS011;3250;42.694;23.278;2023-05-17T04:54:25;17.27;;;11.07;;
6434;SDS011;3250;42.694;23.278;2023-05-17T04:56:51;17.75;;;10.45;;
6434;SDS011;3250;42.694;23.278;2023-05-17T04:59:16;17.20;;;9.93;;
6434;SDS011;3250;42.694;23.278;2023-05-17T05:01:41;20.70;;;10.10;;
6434;SDS011;3250;42.694;23.278;2023-05-17T05:04:07;17.20;;;9.70;;
6434;SDS011;3250;42.694;23.278;2023-05-17T05:06:32;17.93;;;9.87;;
6434;SDS011;3250;42.694;23.278;2023-05-17T05:09:01;19.77;;;9.85;;
6434;SDS011;3250;42.694;23.278;2023-05-17T05:11:28;19.33;;;10.48;;
6434;SDS011;3250;42.694;23.278;2023-05-17T05:13:53;17.60;;;8.68;;
6434;SDS011;3250;42.694;23.278;2023-05-17T05:16:19;15.57;;;9.97;;
6434;SDS011;3250;42.694;23.278;2023-05-17T05:18:45;16.90;;;9.50;;
6434;SDS011;3250;42.694;23.278;2023-05-17T05:21:10;17.42;;;9.60;;
6434;SDS011;3250;42.694;23.278;2023-05-17T05:23:35;13.90;;;8.68;;
6434;SDS011;3250;42.694;23.278;2023-05-17T05:26:01;15.77;;;8.55;;
6434;SDS011;3250;42.694;23.278;2023-05-17T05:28:26;14.18;;;8.93;;
6434;SDS011;3250;42.694;23.278;2023-05-17T05:30:58;12.85;;;8.73;;
6434;SDS011;3250;42.694;23.278;2023-05-17T05:33:24;16.63;;;8.93;;
6434;SDS011;3250;42.694;23.278;2023-05-17T05:35:50;19.27;;;9.32;;
6434;SDS011;3250;42.694;23.278;2023-05-17T05:38:15;18.08;;;9.55;;
6434;SDS011;3250;42.694;23.278;2023-05-17T05:40:41;14.40;;;8.20;;
6434;SDS011;3250;42.694;23.278;2023-05-17T05:43:06;17.30;;;8.90;;
6434;SDS011;3250;42.694;23.278;2023-05-17T05:45:32;18.15;;;7.80;;
6434;SDS011;3250;42.694;23.278;2023-05-17T05:47:57;12.73;;;8.52;;
6434;SDS011;3250;42.694;23.278;2023-05-17T05:50:22;20.88;;;8.80;;
6434;SDS011;3250;42.694;23.278;2023-05-17T05:52:48;19.77;;;7.68;;
6434;SDS011;3250;42.694;23.278;2023-05-17T05:55:13;16.52;;;8.27;;
6434;SDS011;3250;42.694;23.278;2023-05-17T05:57:39;16.55;;;8.93;;
6434;SDS011;3250;42.694;23.278;2023-05-17T06:00:04;15.50;;;8.55;;
6434;SDS011;3250;42.694;23.278;2023-05-17T06:02:30;14.68;;;8.98;;
6434;SDS011;3250;42.694;23.278;2023-05-17T06:04:56;19.38;;;8.57;;
6434;SDS011;3250;42.694;23.278;2023-05-17T06:07:21;18.17;;;7.60;;
6434;SDS011;3250;42.694;23.278;2023-05-17T06:09:47;13.52;;;7.63;;
6434;SDS011;3250;42.694;23.278;2023-05-17T06:12:12;16.13;;;8.43;;
6434;SDS011;3250;42.694;23.278;2023-05-17T06:14:37;14.15;;;8.32;;
6434;SDS011;3250;42.694;23.278;2023-05-17T06:17:04;15.50;;;8.48;;
6434;SDS011;3250;42.694;23.278;2023-05-17T06:19:30;19.13;;;9.93;;
6434;SDS011;3250;42.694;23.278;2023-05-17T06:21:55;13.90;;;8.00;;
6434;SDS011;3250;42.694;23.278;2023-05-17T06:24:20;12.73;;;7.65;;
6434;SDS011;3250;42.694;23.278;2023-05-17T06:26:46;15.45;;;8.38;;
6434;SDS011;3250;42.694;23.278;2023-05-17T06:29:11;14.45;;;8.57;;
6434;SDS011;3250;42.694;23.278;2023-05-17T06:31:36;12.00;;;7.50;;
6434;SDS011;3250;42.694;23.278;2023-05-17T06:34:02;15.75;;;7.63;;
6434;SDS011;3250;42.694;23.278;2023-05-17T06:36:27;16.42;;;8.68;;
6434;SDS011;3250;42.694;23.278;2023-05-17T06:38:53;13.23;;;7.10;;
6434;SDS011;3250;42.694;23.278;2023-05-17T06:41:18;16.95;;;6.18;;
6434;SDS011;3250;42.694;23.278;2023-05-17T06:43:44;11.95;;;7.07;;
6434;SDS011;3250;42.694;23.278;2023-05-17T06:46:09;15.05;;;7.18;;
6434;SDS011;3250;42.694;23.278;2023-05-17T06:48:35;11.43;;;7.35;;
6434;SDS011;3250;42.694;23.278;2023-05-17T06:51:00;14.60;;;6.50;;
6434;SDS011;3250;42.694;23.278;2023-05-17T06:53:26;12.27;;;5.97;;
6434;SDS011;3250;42.694;23.278;2023-05-17T06:55:51;9.20;;;5.07;;
6434;SDS011;3250;42.694;23.278;2023-05-17T06:58:17;20.13;;;6.78;;
6434;SDS011;3250;42.694;23.278;2023-05-17T07:00:42;10.38;;;6.28;;
6434;SDS011;3250;42.694;23.278;2023-05-17T07:03:07;11.15;;;5.97;;
6434;SDS011;3250;42.694;23.278;2023-05-17T07:05:33;10.88;;;5.95;;
6434;SDS011;3250;42.694;23.278;2023-05-17T07:08:00;13.43;;;6.50;;
6434;SDS011;3250;42.694;23.278;2023-05-17T07:10:25;10.30;;;6.00;;
6434;SDS011;3250;42.694;23.278;2023-05-17T07:12:51;12.73;;;5.95;;
6434;SDS011;3250;42.694;23.278;2023-05-17T07:15:17;8.32;;;5.60;;
6434;SDS011;3250;42.694;23.278;2023-05-17T07:17:42;11.50;;;6.32;;
6434;SDS011;3250;42.694;23.278;2023-05-17T07:20:08;18.95;;;6.38;;
6434;SDS011;3250;42.694;23.278;2023-05-17T07:22:35;11.25;;;6.53;;
6434;SDS011;3250;42.694;23.278;2023-05-17T07:25:01;14.48;;;6.03;;
6434;SDS011;3250;42.694;23.278;2023-05-17T07:27:27;17.23;;;6.47;;
6434;SDS011;3250;42.694;23.278;2023-05-17T07:29:53;12.10;;;6.80;;
6434;SDS011;3250;42.694;23.278;2023-05-17T07:32:18;14.02;;;6.80;;
6434;SDS011;3250;42.694;23.278;2023-05-17T07:34:43;11.45;;;7.00;;
6434;SDS011;3250;42.694;23.278;2023-05-17T07:37:09;13.75;;;6.68;;
6434;SDS011;3250;42.694;23.278;2023-05-17T07:39:35;12.18;;;6.25;;
6434;SDS011;3250;42.694;23.278;2023-05-17T07:42:00;17.30;;;6.85;;
6434;SDS011;3250;42.694;23.278;2023-05-17T07:44:26;11.30;;;6.20;;
6434;SDS011;3250;42.694;23.278;2023-05-17T07:46:51;13.05;;;6.47;;
6434;SDS011;3250;42.694;23.278;2023-05-17T07:49:16;10.25;;;6.00;;
6434;SDS011;3250;42.694;23.278;2023-05-17T07:51:42;10.25;;;5.57;;
6434;SDS011;3250;42.694;23.278;2023-05-17T07:54:07;12.48;;;6.85;;
6434;SDS011;3250;42.694;23.278;2023-05-17T07:56:33;16.33;;;6.30;;
6434;SDS011;3250;42.694;23.278;2023-05-17T07:58:58;11.80;;;6.75;;
6434;SDS011;3250;42.694;23.278;2023-05-17T08:01:24;11.43;;;7.43;;
6434;SDS011;3250;42.694;23.278;2023-05-17T08:03:50;13.63;;;5.70;;
6434;SDS011;3250;42.694;23.278;2023-05-17T08:06:16;14.05;;;6.32;;
6434;SDS011;3250;42.694;23.278;2023-05-17T08:08:42;11.77;;;6.35;;
6434;SDS011;3250;42.694;23.278;2023-05-17T08:11:08;9.32;;;6.32;;
6434;SDS011;3250;42.694;23.278;2023-05-17T08:13:34;13.73;;;6.90;;
6434;SDS011;3250;42.694;23.278;2023-05-17T08:16:00;20.20;;;8.02;;
6434;SDS011;3250;42.694;23.278;2023-05-17T08:18:30;11.35;;;6.22;;
6434;SDS011;3250;42.694;23.278;2023-05-17T08:20:55;13.65;;;6.53;;
6434;SDS011;3250;42.694;23.278;2023-05-17T08:23:21;12.10;;;6.90;;
6434;SDS011;3250;42.694;23.278;2023-05-17T08:25:47;14.75;;;7.25;;
6434;SDS011;3250;42.694;23.278;2023-05-17T08:28:12;12.85;;;6.50;;
6434;SDS011;3250;42.694;23.278;2023-05-17T08:30:38;13.85;;;6.60;;
6434;SDS011;3250;42.694;23.278;2023-05-17T08:33:03;13.60;;;6.70;;
6434;SDS011;3250;42.694;23.278;2023-05-17T08:35:28;19.00;;;7.85;;
6434;SDS011;3250;42.694;23.278;2023-05-17T08:37:55;18.92;;;7.63;;
6434;SDS011;3250;42.694;23.278;2023-05-17T08:40:22;14.98;;;7.68;;
6434;SDS011;3250;42.694;23.278;2023-05-17T08:42:47;13.13;;;7.10;;
6434;SDS011;3250;42.694;23.278;2023-05-17T08:45:15;20.15;;;8.25;;
6434;SDS011;3250;42.694;23.278;2023-05-17T08:47:41;15.35;;;7.28;;
6434;SDS011;3250;42.694;23.278;2023-05-17T08:50:08;15.02;;;7.40;;
6434;SDS011;3250;42.694;23.278;2023-05-17T08:52:35;18.80;;;7.93;;
6434;SDS011;3250;42.694;23.278;2023-05-17T08:55:01;17.60;;;7.40;;
6434;SDS011;3250;42.694;23.278;2023-05-17T08:57:30;18.50;;;8.57;;
6434;SDS011;3250;42.694;23.278;2023-05-17T08:59:57;13.35;;;7.43;;
6434;SDS011;3250;42.694;23.278;2023-05-17T09:02:36;13.25;;;6.82;;
6434;SDS011;3250;42.694;23.278;2023-05-17T09:05:02;11.77;;;6.65;;
6434;SDS011;3250;42.694;23.278;2023-05-17T09:07:30;14.30;;;6.43;;
6434;SDS011;3250;42.694;23.278;2023-05-17T09:09:56;13.73;;;7.00;;
6434;SDS011;3250;42.694;23.278;2023-05-17T09:12:22;19.17;;;7.55;;
6434;SDS011;3250;42.694;23.278;2023-05-17T09:14:47;13.68;;;6.50;;
6434;SDS011;3250;42.694;23.278;2023-05-17T09:17:15;14.20;;;6.07;;
6434;SDS011;3250;42.694;23.278;2023-05-17T09:19:42;12.13;;;6.25;;
6434;SDS011;3250;42.694;23.278;2023-05-17T09:22:11;15.32;;;7.07;;
6434;SDS011;3250;42.694;23.278;2023-05-17T09:24:42;12.85;;;7.05;;
6434;SDS011;3250;42.694;23.278;2023-05-17T09:27:07;12.48;;;7.20;;
6434;SDS011;3250;42.694;23.278;2023-05-17T09:29:33;19.65;;;8.25;;
6434;SDS011;3250;42.694;23.278;2023-05-17T09:32:12;16.67;;;7.88;;
6434;SDS011;3250;42.694;23.278;2023-05-17T09:34:39;16.50;;;9.20;;
6434;SDS011;3250;42.694;23.278;2023-05-17T09:37:05;21.10;;;8.50;;
6434;SDS011;3250;42.694;23.278;2023-05-17T09:39:36;13.63;;;7.00;;
6434;SDS011;3250;42.694;23.278;2023-05-17T09:42:02;17.58;;;7.05;;
6434;SDS011;3250;42.694;23.278;2023-05-17T09:44:28;11.50;;;6.50;;
6434;SDS011;3250;42.694;23.278;2023-05-17T09:46:56;17.17;;;7.30;;
6434;SDS011;3250;42.694;23.278;2023-05-17T09:49:24;14.30;;;7.72;;
6434;SDS011;3250;42.694;23.278;2023-05-17T09:51:51;19.52;;;6.75;;
6434;SDS011;3250;42.694;23.278;2023-05-17T09:54:16;14.07;;;7.25;;
6434;SDS011;3250;42.694;23.278;2023-05-17T09:56:42;13.55;;;6.05;;
6434;SDS011;3250;42.694;23.278;2023-05-17T09:59:12;14.30;;;6.47;;
6434;SDS011;3250;42.694;23.278;2023-05-17T10:01:39;14.48;;;6.80;;
6434;SDS011;3250;42.694;23.278;2023-05-17T10:04:08;11.45;;;6.18;;
6434;SDS011;3250;42.694;23.278;2023-05-17T10:06:34;11.23;;;6.03;;
6434;SDS011;3250;42.694;23.278;2023-05-17T10:09:03;15.38;;;6.65;;
6434;SDS011;3250;42.694;23.278;2023-05-17T10:11:30;14.40;;;5.97;;
6434;SDS011;3250;42.694;23.278;2023-05-17T10:16:31;16.67;;;6.18;;
6434;SDS011;3250;42.694;23.278;2023-05-17T10:18:58;13.02;;;5.75;;
6434;SDS011;3250;42.694;23.278;2023-05-17T10:21:24;12.13;;;5.38;;
6434;SDS011;3250;42.694;23.278;2023-05-17T10:23:50;12.95;;;5.70;;
6434;SDS011;3250;42.694;23.278;2023-05-17T10:26:17;16.02;;;6.07;;
6434;SDS011;3250;42.694;23.278;2023-05-17T10:28:42;10.90;;;5.43;;
6434;SDS011;3250;42.694;23.278;2023-05-17T10:31:10;11.82;;;5.90;;
6434;SDS011;3250;42.694;23.278;2023-05-17T10:33:36;10.48;;;5.10;;
6434;SDS011;3250;42.694;23.278;2023-05-17T10:36:03;12.15;;;5.45;;
6434;SDS011;3250;42.694;23.278;2023-05-17T10:38:30;14.02;;;5.35;;
6434;SDS011;3250;42.694;23.278;2023-05-17T10:40:57;10.02;;;4.57;;
6434;SDS011;3250;42.694;23.278;2023-05-17T10:43:23;9.85;;;5.38;;
6434;SDS011;3250;42.694;23.278;2023-05-17T10:45:50;12.52;;;5.40;;
6434;SDS011;3250;42.694;23.278;2023-05-17T10:48:16;14.20;;;5.63;;
6434;SDS011;3250;42.694;23.278;2023-05-17T10:50:44;17.45;;;7.13;;
6434;SDS011;3250;42.694;23.278;2023-05-17T10:53:10;14.85;;;4.80;;
6434;SDS011;3250;42.694;23.278;2023-05-17T10:55:38;9.77;;;4.90;;
6434;SDS011;3250;42.694;23.278;2023-05-17T10:58:17;13.90;;;5.28;;
6434;SDS011;3250;42.694;23.278;2023-05-17T11:03:15;8.52;;;5.05;;
6434;SDS011;3250;42.694;23.278;2023-05-17T11:08:37;9.02;;;5.00;;
6434;SDS011;3250;42.694;23.278;2023-05-17T11:13:46;14.85;;;5.50;;
6434;SDS011;3250;42.694;23.278;2023-05-17T11:16:16;12.85;;;5.75;;
6434;SDS011;3250;42.694;23.278;2023-05-17T11:18:53;10.90;;;5.30;;
6434;SDS011;3250;42.694;23.278;2023-05-17T11:21:21;13.05;;;5.35;;
6434;SDS011;3250;42.694;23.278;2023-05-17T11:23:48;8.82;;;4.93;;
6434;SDS011;3250;42.694;23.278;2023-05-17T11:29:03;10.98;;;5.70;;
6434;SDS011;3250;42.694;23.278;2023-05-17T11:31:32;12.27;;;5.18;;
6434;SDS011;3250;42.694;23.278;2023-05-17T11:33:58;10.63;;;5.50;;
6434;SDS011;3250;42.694;23.278;2023-05-17T11:36:25;15.68;;;5.68;;
6434;SDS011;3250;42.694;23.278;2023-05-17T11:39:12;10.05;;;5.43;;
6434;SDS011;3250;42.694;23.278;2023-05-17T11:41:37;10.95;;;5.60;;
6434;SDS011;3250;42.694;23.278;2023-05-17T11:44:07;12.82;;;6.65;;
6434;SDS011;3250;42.694;23.278;2023-05-17T11:46:35;18.45;;;6.80;;
6434;SDS011;3250;42.694;23.278;2023-05-17T11:49:04;22.80;;;6.82;;
6434;SDS011;3250;42.694;23.278;2023-05-17T11:51:30;11.10;;;5.93;;
6434;SDS011;3250;42.694;23.278;2023-05-17T11:53:56;11.60;;;5.70;;
6434;SDS011;3250;42.694;23.278;2023-05-17T11:56:23;16.45;;;6.93;;
6434;SDS011;3250;42.694;23.278;2023-05-17T11:58:50;10.55;;;5.68;;
6434;SDS011;3250;42.694;23.278;2023-05-17T12:01:16;21.60;;;6.57;;
6434;SDS011;3250;42.694;23.278;2023-05-17T12:03:42;12.82;;;5.88;;
6434;SDS011;3250;42.694;23.278;2023-05-17T12:08:34;18.52;;;6.80;;
6434;SDS011;3250;42.694;23.278;2023-05-17T12:11:03;13.07;;;6.10;;
6434;SDS011;3250;42.694;23.278;2023-05-17T12:13:30;11.10;;;6.28;;
6434;SDS011;3250;42.694;23.278;2023-05-17T12:16:01;15.35;;;6.72;;
6434;SDS011;3250;42.694;23.278;2023-05-17T12:18:33;13.68;;;6.32;;
6434;SDS011;3250;42.694;23.278;2023-05-17T12:21:00;10.02;;;6.30;;
6434;SDS011;3250;42.694;23.278;2023-05-17T12:23:30;10.43;;;6.38;;
6434;SDS011;3250;42.694;23.278;2023-05-17T12:26:07;13.60;;;5.90;;
6434;SDS011;3250;42.694;23.278;2023-05-17T12:28:39;11.55;;;5.93;;
6434;SDS011;3250;42.694;23.278;2023-05-17T12:31:12;14.98;;;6.90;;
6434;SDS011;3250;42.694;23.278;2023-05-17T12:33:41;12.68;;;6.03;;
6434;SDS011;3250;42.694;23.278;2023-05-17T12:36:08;13.55;;;6.00;;
6434;SDS011;3250;42.694;23.278;2023-05-17T12:38:35;14.88;;;5.47;;
6434;SDS011;3250;42.694;23.278;2023-05-17T12:41:04;14.70;;;6.10;;
6434;SDS011;3250;42.694;23.278;2023-05-17T12:43:33;15.25;;;6.07;;
6434;SDS011;3250;42.694;23.278;2023-05-17T12:46:01;13.60;;;5.45;;
6434;SDS011;3250;42.694;23.278;2023-05-17T12:48:29;11.68;;;5.95;;
6434;SDS011;3250;42.694;23.278;2023-05-17T12:50:55;9.77;;;5.80;;
6434;SDS011;3250;42.694;23.278;2023-05-17T12:53:21;11.68;;;5.88;;
6434;SDS011;3250;42.694;23.278;2023-05-17T12:55:47;14.48;;;6.43;;
6434;SDS011;3250;42.694;23.278;2023-05-17T12:58:13;12.48;;;6.00;;
6434;SDS011;3250;42.694;23.278;2023-05-17T13:00:38;13.73;;;6.00;;
6434;SDS011;3250;42.694;23.278;2023-05-17T13:03:10;13.52;;;6.30;;
6434;SDS011;3250;42.694;23.278;2023-05-17T13:05:35;15.13;;;6.97;;
6434;SDS011;3250;42.694;23.278;2023-05-17T13:08:19;13.23;;;6.38;;
6434;SDS011;3250;42.694;23.278;2023-05-17T13:10:45;10.50;;;5.93;;
6434;SDS011;3250;42.694;23.278;2023-05-17T13:13:16;11.35;;;5.88;;
6434;SDS011;3250;42.694;23.278;2023-05-17T13:15:44;8.93;;;5.82;;
6434;SDS011;3250;42.694;23.278;2023-05-17T13:18:12;12.07;;;5.90;;
6434;SDS011;3250;42.694;23.278;2023-05-17T13:20:39;12.00;;;5.82;;
6434;SDS011;3250;42.694;23.278;2023-05-17T13:23:05;14.38;;;5.93;;
6434;SDS011;3250;42.694;23.278;2023-05-17T13:25:31;11.35;;;7.05;;
6434;SDS011;3250;42.694;23.278;2023-05-17T13:27:56;12.00;;;5.32;;
6434;SDS011;3250;42.694;23.278;2023-05-17T13:30:24;11.63;;;5.63;;
6434;SDS011;3250;42.694;23.278;2023-05-17T13:32:50;14.02;;;5.68;;
6434;SDS011;3250;42.694;23.278;2023-05-17T13:35:15;13.50;;;6.72;;
6434;SDS011;3250;42.694;23.278;2023-05-17T13:37:41;11.43;;;4.78;;
6434;SDS011;3250;42.694;23.278;2023-05-17T13:40:07;15.18;;;5.05;;
6434;SDS011;3250;42.694;23.278;2023-05-17T13:42:33;12.88;;;5.45;;
6434;SDS011;3250;42.694;23.278;2023-05-17T13:44:58;12.65;;;5.07;;
6434;SDS011;3250;42.694;23.278;2023-05-17T13:47:25;13.55;;;5.45;;
6434;SDS011;3250;42.694;23.278;2023-05-17T13:49:53;13.90;;;4.78;;
6434;SDS011;3250;42.694;23.278;2023-05-17T13:52:19;7.40;;;4.65;;
6434;SDS011;3250;42.694;23.278;2023-05-17T13:54:47;16.05;;;4.70;;
6434;SDS011;3250;42.694;23.278;2023-05-17T13:57:12;16.15;;;4.03;;
6434;SDS011;3250;42.694;23.278;2023-05-17T13:59:37;8.07;;;3.67;;
6434;SDS011;3250;42.694;23.278;2023-05-17T14:02:03;12.27;;;4.00;;
6434;SDS011;3250;42.694;23.278;2023-05-17T14:04:28;9.75;;;4.70;;
6434;SDS011;3250;42.694;23.278;2023-05-17T14:06:54;10.52;;;3.78;;
6434;SDS011;3250;42.694;23.278;2023-05-17T14:09:19;8.73;;;3.45;;
6434;SDS011;3250;42.694;23.278;2023-05-17T14:11:45;8.25;;;4.15;;
6434;SDS011;3250;42.694;23.278;2023-05-17T14:14:10;9.93;;;3.58;;
6434;SDS011;3250;42.694;23.278;2023-05-17T14:16:36;9.27;;;3.63;;
6434;SDS011;3250;42.694;23.278;2023-05-17T14:19:01;11.75;;;3.40;;
6434;SDS011;3250;42.694;23.278;2023-05-17T14:21:27;7.97;;;3.38;;
6434;SDS011;3250;42.694;23.278;2023-05-17T14:23:52;14.27;;;4.03;;
6434;SDS011;3250;42.694;23.278;2023-05-17T14:26:18;10.48;;;3.50;;
6434;SDS011;3250;42.694;23.278;2023-05-17T14:28:43;12.63;;;3.38;;
6434;SDS011;3250;42.694;23.278;2023-05-17T14:31:08;9.53;;;4.20;;
6434;SDS011;3250;42.694;23.278;2023-05-17T14:33:34;8.75;;;3.97;;
6434;SDS011;3250;42.694;23.278;2023-05-17T14:36:00;12.52;;;3.78;;
6434;SDS011;3250;42.694;23.278;2023-05-17T14:38:26;8.82;;;3.38;;
6434;SDS011;3250;42.694;23.278;2023-05-17T14:40:51;9.17;;;3.87;;
6434;SDS011;3250;42.694;23.278;2023-05-17T14:43:17;6.83;;;3.97;;
6434;SDS011;3250;42.694;23.278;2023-05-17T14:45:44;5.35;;;3.53;;
6434;SDS011;3250;42.694;23.278;2023-05-17T14:48:09;8.40;;;3.67;;
6434;SDS011;3250;42.694;23.278;2023-05-17T14:50:35;6.63;;;3.58;;
6434;SDS011;3250;42.694;23.278;2023-05-17T14:53:01;10.13;;;3.95;;
6434;SDS011;3250;42.694;23.278;2023-05-17T14:55:26;12.10;;;4.23;;
6434;SDS011;3250;42.694;23.278;2023-05-17T14:57:52;8.20;;;3.53;;
6434;SDS011;3250;42.694;23.278;2023-05-17T15:00:18;9.25;;;3.75;;
6434;SDS011;3250;42.694;23.278;2023-05-17T15:02:45;7.68;;;3.88;;
6434;SDS011;3250;42.694;23.278;2023-05-17T15:05:11;7.93;;;3.47;;
6434;SDS011;3250;42.694;23.278;2023-05-17T15:07:37;5.80;;;2.90;;
6434;SDS011;3250;42.694;23.278;2023-05-17T15:10:03;10.77;;;4.35;;